Time;durP1;ratioP1;P1;durP2;ratioP2;P2;SDS_P1;SDS_P2;PMS_P1;PMS_P2;Temp;Humidity;BMP_temperature;BMP_pressure;BME280_temperature;BME280_humidity;BME280_pressure;Samples;Min_cycle;Max_cycle;Signal;HPM_P1;HPM_P2
2022/06/26 00:01:23;;;;;;;10.05;4.95;;;;;;;17.81;77.92;93917.53;5046738;28;20017;-90
2022/06/26 00:03:48;;;;;;;8.32;3.70;;;;;;;17.81;79.20;93926.38;5045627;28;20044;-90
2022/06/26 00:06:14;;;;;;;9.07;3.67;;;;;;;17.76;78.22;93921.28;5046616;28;20025;-90
2022/06/26 00:08:39;;;;;;;8.98;3.58;;;;;;;17.73;77.85;93915.84;5046850;28;20091;-90
2022/06/26 00:11:05;;;;;;;8.13;3.30;;;;;;;17.67;77.00;93915.34;5046514;28;20029;-90
2022/06/26 00:13:31;;;;;;;10.63;3.10;;;;;;;17.60;76.56;93912.50;5046687;28;20026;-89
2022/06/26 00:15:57;;;;;;;7.68;3.00;;;;;;;17.60;76.88;93923.28;5046322;28;20025;-89
2022/06/26 00:18:22;;;;;;;9.48;2.70;;;;;;;17.54;78.43;93925.47;5045403;28;20067;-90
2022/06/26 00:20:48;;;;;;;11.90;2.63;;;;;;;17.54;77.96;93917.38;5046316;28;20040;-89
2022/06/26 00:23:13;;;;;;;11.55;2.85;;;;;;;17.56;78.56;93927.81;5046515;28;20029;-89
2022/06/26 00:25:39;;;;;;;10.80;4.00;;;;;;;17.55;78.95;93931.66;5045348;28;20026;-90
2022/06/26 00:28:04;;;;;;;7.40;3.42;;;;;;;17.55;79.25;93928.97;5046133;28;20216;-89
2022/06/26 00:30:30;;;;;;;5.35;2.47;;;;;;;17.59;79.05;93927.13;5046105;28;20025;-90
2022/06/26 00:32:55;;;;;;;9.48;3.08;;;;;;;17.54;77.35;93919.31;5046227;28;20193;-90
2022/06/26 00:35:21;;;;;;;13.07;3.05;;;;;;;17.58;77.06;93920.16;5046162;28;20028;-90
2022/06/26 00:37:48;;;;;;;8.45;2.83;;;;;;;17.54;76.63;93914.69;5045958;28;20036;-89
2022/06/26 00:40:13;;;;;;;9.40;2.72;;;;;;;17.51;76.70;93925.41;5046056;28;20021;-89
2022/06/26 00:42:39;;;;;;;5.45;2.63;;;;;;;17.50;75.79;93913.06;5045982;28;20067;-89
2022/06/26 00:45:05;;;;;;;6.82;2.55;;;;;;;17.54;76.41;93908.53;5046427;28;20227;-90
2022/06/26 00:47:31;;;;;;;7.88;2.72;;;;;;;17.61;76.65;93914.06;5046045;28;20021;-90
2022/06/26 00:49:57;;;;;;;11.82;3.50;;;;;;;17.64;77.20;93907.94;5045793;28;20116;-89
2022/06/26 00:52:23;;;;;;;7.18;3.70;;;;;;;17.71;77.59;93918.88;5045798;28;20072;-89
2022/06/26 00:54:50;;;;;;;11.32;3.88;;;;;;;17.81;78.70;93912.91;5045772;28;20096;-90
2022/06/26 00:57:15;;;;;;;7.13;2.72;;;;;;;17.88;78.85;93908.81;5045858;28;20033;-90
2022/06/26 00:59:41;;;;;;;5.40;3.08;;;;;;;17.94;78.84;93918.16;5045971;28;20344;-89
2022/06/26 01:02:07;;;;;;;8.88;2.58;;;;;;;17.97;78.97;93918.22;5045744;28;20027;-89
2022/06/26 01:04:33;;;;;;;5.80;2.83;;;;;;;18.00;78.87;93925.59;5045107;28;20021;-88
2022/06/26 01:06:58;;;;;;;10.02;2.92;;;;;;;18.02;78.55;93922.53;5045480;28;20021;-89
2022/06/26 01:09:24;;;;;;;4.50;2.33;;;;;;;18.06;78.47;93918.00;5045778;28;20027;-89
2022/06/26 01:11:50;;;;;;;7.63;2.45;;;;;;;18.10;78.48;93929.63;5045765;28;20037;-89
2022/06/26 01:14:17;;;;;;;7.47;2.50;;;;;;;18.08;78.31;93921.13;5046918;28;20339;-90
2022/06/26 01:16:43;;;;;;;6.47;2.42;;;;;;;18.06;77.36;93918.00;5046453;28;20089;-90
2022/06/26 01:19:09;;;;;;;5.30;2.03;;;;;;;18.05;77.36;93927.22;5045653;28;20025;-89
2022/06/26 01:21:36;;;;;;;5.72;2.08;;;;;;;18.07;77.15;93924.16;5044292;28;20328;-90
2022/06/26 01:24:03;;;;;;;5.78;2.20;;;;;;;18.06;77.81;93926.09;5045442;28;20136;-90
2022/06/26 01:26:30;;;;;;;5.57;1.80;;;;;;;18.07;77.81;93924.16;5045278;28;20029;-89
2022/06/26 01:28:55;;;;;;;5.80;1.77;;;;;;;18.06;77.59;93923.38;5045322;28;20374;-90
2022/06/26 01:31:21;;;;;;;4.95;1.90;;;;;;;18.09;77.12;93925.34;5045069;28;20033;-90
2022/06/26 01:33:50;;;;;;;6.22;1.33;;;;;;;18.07;76.97;93924.16;5045504;28;20132;-90
2022/06/26 01:36:16;;;;;;;4.25;1.30;;;;;;;18.05;77.32;93921.81;5044324;28;20029;-90
2022/06/26 01:38:42;;;;;;;8.38;1.63;;;;;;;18.06;77.58;93922.63;5045141;28;20029;-90
2022/06/26 01:41:08;;;;;;;11.23;1.63;;;;;;;18.06;77.37;93928.78;5043858;28;20082;-90
2022/06/26 01:43:36;;;;;;;9.60;1.85;;;;;;;18.02;77.04;93923.31;5044875;28;20025;-90
2022/06/26 01:46:03;;;;;;;6.25;1.75;;;;;;;18.04;76.68;93936.44;5044918;28;20060;-89
2022/06/26 01:48:29;;;;;;;4.03;1.77;;;;;;;18.06;76.89;93936.09;5043777;28;20026;-90
2022/06/26 01:50:57;;;;;;;4.35;2.55;;;;;;;18.05;77.06;93935.31;5043536;28;20056;-90
2022/06/26 01:53:23;;;;;;;7.22;1.45;;;;;;;18.06;76.53;93939.56;5044800;28;20092;-90
2022/06/26 01:55:48;;;;;;;6.63;1.70;;;;;;;18.07;76.40;93941.13;5044764;28;20021;-89
2022/06/26 01:58:14;;;;;;;4.85;1.73;;;;;;;18.07;76.42;93945.72;5044586;28;20045;-89
2022/06/26 02:00:42;;;;;;;6.72;1.50;;;;;;;18.05;74.39;93959.56;5044603;28;20045;-90
2022/06/26 02:03:08;;;;;;;10.77;1.75;;;;;;;17.99;73.39;93961.00;5044584;28;20028;-89
2022/06/26 02:05:34;;;;;;;5.30;1.70;;;;;;;17.93;73.43;93965.13;5044594;28;20021;-89
2022/06/26 02:08:00;;;;;;;5.65;1.60;;;;;;;17.88;74.29;93955.41;5044494;28;20092;-89
2022/06/26 02:15:57;;;;;;;7.68;1.55;;;;;;;17.93;75.98;93970.53;5044040;28;20055;-90
2022/06/26 02:18:22;;;;;;;10.13;2.03;;;;;;;17.96;76.35;93975.22;5043861;28;20052;-89
2022/06/26 02:20:49;;;;;;;6.03;1.30;;;;;;;17.99;76.61;93971.78;5043273;28;20018;-89
2022/06/26 02:23:15;;;;;;;10.63;2.22;;;;;;;17.97;75.62;93963.28;5044398;28;20258;-90
2022/06/26 02:25:41;;;;;;;6.57;1.77;;;;;;;17.97;75.37;93965.97;5044172;28;20050;-89
2022/06/26 02:28:07;;;;;;;8.38;2.17;;;;;;;17.97;74.94;93963.28;5044504;28;20312;-89
2022/06/26 02:30:33;;;;;;;11.95;4.28;;;;;;;17.97;76.40;93958.69;5045008;28;20104;-89
2022/06/26 02:32:59;;;;;;;7.30;1.83;;;;;;;17.98;76.41;93948.66;5045013;28;20033;-89
2022/06/26 02:35:26;;;;;;;8.05;2.20;;;;;;;17.96;77.05;93953.63;5046837;28;20024;-90
2022/06/26 02:37:54;;;;;;;9.38;2.15;;;;;;;17.96;76.94;93959.81;5047698;28;20024;-89
2022/06/26 02:40:20;;;;;;;17.05;2.10;;;;;;;17.98;77.46;93965.63;5052007;28;20013;-90
2022/06/26 02:43:18;;;;;;;7.43;2.53;;;;;;;17.97;77.77;93960.56;5046896;28;20025;-90
2022/06/26 02:45:44;;;;;;;5.45;2.10;;;;;;;17.95;77.80;93960.16;5050923;28;20017;-91
2022/06/26 02:48:10;;;;;;;6.30;1.63;;;;;;;17.93;78.04;93959.72;5050150;28;20021;-88
2022/06/26 02:50:35;;;;;;;8.25;3.05;;;;;;;17.95;77.77;93960.16;5050866;28;20021;-90
2022/06/26 02:53:01;;;;;;;6.35;2.40;;;;;;;17.94;77.40;93972.88;5046334;28;20021;-89
2022/06/26 02:55:26;;;;;;;7.75;1.88;;;;;;;17.95;77.24;93970.94;5043864;28;20029;-89
2022/06/26 02:57:52;;;;;;;4.38;1.83;;;;;;;17.91;77.03;93970.09;5043465;28;20055;-89
2022/06/26 03:00:17;;;;;;;6.70;1.85;;;;;;;17.91;76.77;93976.28;5044220;28;20021;-89
2022/06/26 03:02:43;;;;;;;10.10;1.80;;;;;;;17.91;76.95;93981.69;5044274;28;20025;-89
2022/06/26 03:05:09;;;;;;;5.72;2.00;;;;;;;17.91;76.25;93983.56;5043992;28;20033;-89
2022/06/26 03:07:35;;;;;;;7.25;1.73;;;;;;;17.88;74.42;93984.31;5043314;28;20025;-90
2022/06/26 03:10:00;;;;;;;8.35;1.83;;;;;;;17.84;74.18;93982.31;5044001;28;20056;-89
2022/06/26 03:12:26;;;;;;;6.03;1.67;;;;;;;17.82;75.13;93979.16;5044099;28;20301;-89
2022/06/26 03:14:52;;;;;;;8.52;2.67;;;;;;;17.84;76.39;93973.44;5043649;28;20291;-88
2022/06/26 03:17:19;;;;;;;13.95;2.08;;;;;;;17.86;77.04;93983.88;5043543;28;20029;-90
2022/06/26 03:19:44;;;;;;;3.67;1.80;;;;;;;17.89;77.20;93985.84;5043441;28;20044;-89
2022/06/26 03:22:10;;;;;;;7.97;1.80;;;;;;;17.91;77.05;93986.28;5043216;28;20311;-89
2022/06/26 03:24:35;;;;;;;7.82;1.90;;;;;;;17.92;77.06;93994.00;5043157;28;20021;-89
2022/06/26 03:27:01;;;;;;;3.80;1.80;;;;;;;17.93;76.95;93992.88;5043389;28;20045;-90
2022/06/26 03:29:26;;;;;;;5.65;2.00;;;;;;;17.96;76.95;93996.78;5046346;28;20021;-89
2022/06/26 03:31:52;;;;;;;8.40;2.13;;;;;;;17.98;77.74;93992.59;5047208;28;20032;-88
2022/06/26 03:34:19;;;;;;;10.77;2.75;;;;;;;17.99;77.69;93990.66;5047679;28;20021;-89
2022/06/26 03:36:45;;;;;;;12.70;2.45;;;;;;;18.00;77.63;93994.94;5047496;28;20032;-89
2022/06/26 03:39:10;;;;;;;10.45;4.22;;;;;;;17.98;77.54;93997.97;5047046;28;20021;-90
2022/06/26 03:41:36;;;;;;;9.77;2.50;;;;;;;18.01;77.75;94007.28;5046047;28;20250;-90
2022/06/26 03:44:01;;;;;;;10.80;2.75;;;;;;;18.02;78.02;94000.75;5047260;28;20024;-88
2022/06/26 03:46:27;;;;;;;9.65;3.15;;;;;;;18.05;78.00;94002.72;5046909;28;20032;-88
2022/06/26 03:48:52;;;;;;;10.65;2.50;;;;;;;18.11;78.40;94006.69;5047130;28;20025;-88
2022/06/26 03:51:18;;;;;;;9.57;2.40;;;;;;;18.12;78.91;94002.88;5046955;28;20029;-88
2022/06/26 03:53:44;;;;;;;7.20;2.92;;;;;;;18.16;78.59;93998.31;5046860;28;20057;-89
2022/06/26 03:56:09;;;;;;;10.15;2.50;;;;;;;18.18;78.28;94004.13;5047136;28;20027;-88
2022/06/26 03:58:35;;;;;;;16.65;3.17;;;;;;;18.16;78.21;94002.94;5046808;28;20258;-89
2022/06/26 04:01:00;;;;;;;10.77;3.90;;;;;;;18.16;78.29;94009.09;5046730;28;20017;-88
2022/06/26 04:03:26;;;;;;;10.65;2.80;;;;;;;18.13;78.74;94009.81;5046711;28;20021;-88
2022/06/26 04:05:51;;;;;;;8.27;3.78;;;;;;;18.14;78.56;94016.78;5046997;28;20033;-87
2022/06/26 04:08:17;;;;;;;8.52;3.08;;;;;;;18.13;78.01;94014.44;5047054;28;20056;-89
2022/06/26 04:10:43;;;;;;;7.28;3.20;;;;;;;18.12;78.54;94015.59;5047134;28;20025;-87
2022/06/26 04:13:10;;;;;;;5.65;3.03;;;;;;;18.10;78.49;94009.75;5047547;28;20088;-89
2022/06/26 04:15:38;;;;;;;6.78;3.42;;;;;;;18.14;78.00;94014.09;5047180;28;20045;-88
2022/06/26 04:18:05;;;;;;;16.52;3.72;;;;;;;18.09;77.29;94008.19;5046611;28;20041;-88
2022/06/26 04:20:30;;;;;;;6.43;2.90;;;;;;;18.05;77.98;94008.13;5046583;28;20024;-90
2022/06/26 04:23:06;;;;;;;10.65;4.10;;;;;;;18.09;78.13;94017.06;5046448;28;20021;-90
2022/06/26 04:25:33;;;;;;;6.45;3.75;;;;;;;18.11;78.31;94012.09;5046423;28;20096;-90
2022/06/26 04:27:59;;;;;;;12.57;4.15;;;;;;;18.15;78.28;94012.16;5046236;28;20324;-89
2022/06/26 04:30:26;;;;;;;14.55;3.85;;;;;;;18.18;78.40;94006.84;5046259;28;20025;-90
2022/06/26 04:32:51;;;;;;;12.85;4.18;;;;;;;18.29;78.42;94012.41;5046584;28;20021;-89
2022/06/26 04:35:17;;;;;;;14.95;4.40;;;;;;;18.35;78.88;94004.81;5045549;28;20318;-89
2022/06/26 04:37:43;;;;;;;14.07;4.53;;;;;;;18.42;78.73;94004.97;5046250;28;20028;-90
2022/06/26 04:40:11;;;;;;;11.75;5.05;;;;;;;18.42;78.95;94010.34;5045028;28;20029;-90
2022/06/26 04:42:38;;;;;;;11.05;5.43;;;;;;;18.44;78.86;94014.25;5046454;28;20300;-89
2022/06/26 04:45:04;;;;;;;14.35;5.57;;;;;;;18.45;78.84;94013.09;5046231;28;20061;-89
2022/06/26 04:47:30;;;;;;;13.85;6.53;;;;;;;18.42;78.57;93999.56;5046185;28;20022;-90
2022/06/26 04:49:55;;;;;;;11.98;6.53;;;;;;;18.44;78.20;94010.78;5046385;28;20110;-91
2022/06/26 04:52:21;;;;;;;17.58;7.32;;;;;;;18.42;78.51;94008.44;5047082;28;20026;-89
2022/06/26 04:54:46;;;;;;;14.48;6.25;;;;;;;18.40;79.22;94012.63;5046233;28;20017;-88
2022/06/26 04:57:12;;;;;;;13.52;6.60;;;;;;;18.44;79.42;94013.47;5045909;28;20025;-88
2022/06/26 04:59:38;;;;;;;12.35;7.63;;;;;;;18.44;79.36;94018.88;5045717;28;20041;-89
2022/06/26 05:02:06;;;;;;;16.17;7.93;;;;;;;18.42;78.79;94027.31;5045838;28;20017;-89
2022/06/26 05:04:32;;;;;;;14.77;7.47;;;;;;;18.36;79.22;94033.34;5045609;28;20024;-89
2022/06/26 05:06:58;;;;;;;13.30;7.75;;;;;;;18.34;79.34;94035.63;5045639;28;20212;-88
2022/06/26 05:09:24;;;;;;;14.27;6.72;;;;;;;18.37;79.28;94032.22;5045876;28;20026;-90
2022/06/26 05:11:50;;;;;;;10.48;7.40;;;;;;;18.37;79.79;94035.69;5045713;28;20029;-88
2022/06/26 05:14:17;;;;;;;17.15;8.07;;;;;;;18.39;79.44;94038.03;5045492;28;20068;-89
2022/06/26 05:16:42;;;;;;;13.38;7.97;;;;;;;18.37;79.92;94037.63;5045434;28;20037;-89
2022/06/26 05:19:08;;;;;;;17.50;7.93;;;;;;;18.39;80.33;94044.22;5045137;28;20068;-88
2022/06/26 05:21:33;;;;;;;13.13;7.45;;;;;;;18.42;80.37;94048.91;5045383;28;20021;-88
2022/06/26 05:23:59;;;;;;;13.25;8.77;;;;;;;18.48;79.83;94051.28;5045509;28;20052;-89
2022/06/26 05:26:24;;;;;;;13.40;8.55;;;;;;;18.52;79.63;94047.53;5045215;28;20029;-89
2022/06/26 05:28:50;;;;;;;14.85;8.85;;;;;;;18.60;79.37;94053.81;5045323;28;20032;-88
2022/06/26 05:31:16;;;;;;;15.18;8.38;;;;;;;18.58;79.03;94062.31;5045055;28;20039;-88
2022/06/26 05:33:42;;;;;;;14.20;8.45;;;;;;;18.63;78.94;94059.28;5045129;28;20071;-88
2022/06/26 05:36:07;;;;;;;13.35;8.10;;;;;;;18.67;78.56;94070.16;5045092;28;20025;-88
2022/06/26 05:38:37;;;;;;;16.25;7.82;;;;;;;18.68;77.97;94071.72;5045202;28;20063;-89
2022/06/26 05:41:03;;;;;;;12.52;7.43;;;;;;;18.60;77.89;94070.81;5044916;28;20024;-88
2022/06/26 05:43:28;;;;;;;12.88;7.68;;;;;;;18.61;78.59;94066.97;5043971;28;20116;-89
2022/06/26 05:45:54;;;;;;;17.05;7.95;;;;;;;18.76;78.01;94068.00;5044599;28;20026;-89
2022/06/26 05:48:20;;;;;;;14.07;6.93;;;;;;;18.82;76.79;94071.97;5043899;28;20104;-89
2022/06/26 05:50:45;;;;;;;14.55;7.03;;;;;;;18.89;75.80;94065.94;5044781;28;20021;-88
2022/06/26 05:53:11;;;;;;;17.88;6.75;;;;;;;19.00;74.05;94071.50;5044798;28;20021;-88
2022/06/26 05:55:38;;;;;;;12.07;6.40;;;;;;;19.04;75.19;94069.66;5044807;28;20100;-90
2022/06/26 05:58:04;;;;;;;13.88;7.03;;;;;;;19.00;74.45;94069.59;5044584;28;20425;-88
2022/06/26 06:00:30;;;;;;;14.65;6.65;;;;;;;19.12;75.40;94067.84;5043420;28;20052;-89
2022/06/26 06:02:55;;;;;;;13.07;6.95;;;;;;;19.27;74.10;94075.03;5044772;28;20816;-89
2022/06/26 06:05:21;;;;;;;16.40;7.25;;;;;;;19.30;74.05;94076.25;5043594;28;20109;-88
2022/06/26 06:07:46;;;;;;;11.48;6.75;;;;;;;19.38;74.26;94081.38;5044577;28;20025;-89
2022/06/26 06:10:12;;;;;;;13.07;6.90;;;;;;;19.41;74.03;94077.94;5044528;28;20044;-90
2022/06/26 06:12:37;;;;;;;13.45;8.05;;;;;;;19.37;73.66;94074.41;5044469;28;20021;-90
2022/06/26 06:15:03;;;;;;;11.25;6.47;;;;;;;19.44;74.55;94076.44;5044247;28;20021;-89
2022/06/26 06:17:40;;;;;;;12.13;6.10;;;;;;;19.48;74.18;94073.78;5044264;28;20017;-90
2022/06/26 06:20:20;;;;;;;11.85;6.30;;;;;;;19.51;73.57;94073.06;5043416;28;20021;-90
2022/06/26 06:22:54;;;;;;;10.80;6.35;;;;;;;19.54;73.33;94066.91;5044044;28;20342;-90
2022/06/26 06:25:23;;;;;;;17.23;6.38;;;;;;;19.48;73.60;94076.47;5044660;28;20033;-89
2022/06/26 06:27:49;;;;;;;16.15;6.35;;;;;;;19.51;73.63;94078.47;5044041;28;20092;-89
2022/06/26 06:30:15;;;;;;;16.42;6.90;;;;;;;19.48;73.75;94084.59;5043957;28;20374;-90
2022/06/26 06:32:41;;;;;;;10.57;5.60;;;;;;;19.47;72.82;94085.75;5044037;28;20022;-89
2022/06/26 06:35:08;;;;;;;11.55;4.72;;;;;;;19.55;72.79;94090.88;5044020;28;20020;-90
2022/06/26 06:37:34;;;;;;;13.30;5.53;;;;;;;19.62;71.65;94090.19;5043951;28;20021;-90
2022/06/26 06:40:00;;;;;;;10.02;4.22;;;;;;;19.71;72.93;94081.88;5043972;28;20021;-88
2022/06/26 06:42:25;;;;;;;7.78;4.70;;;;;;;19.83;72.79;94085.13;5043577;28;20264;-88
2022/06/26 06:44:51;;;;;;;7.00;3.85;;;;;;;19.90;70.74;94078.25;5043868;28;20056;-88
2022/06/26 06:47:17;;;;;;;7.43;3.90;;;;;;;19.97;70.56;94076.44;5043677;28;20017;-89
2022/06/26 06:49:42;;;;;;;8.20;4.55;;;;;;;19.88;69.55;94077.84;5043771;28;20025;-89
2022/06/26 06:52:08;;;;;;;11.95;4.03;;;;;;;19.93;70.64;94082.94;5044127;28;20017;-89
2022/06/26 06:54:34;;;;;;;9.73;4.45;;;;;;;20.06;70.49;94089.66;5043526;28;20316;-89
2022/06/26 06:57:00;;;;;;;9.30;4.35;;;;;;;20.10;70.38;94081.59;5042768;28;20093;-89
2022/06/26 06:59:26;;;;;;;10.27;4.20;;;;;;;20.17;70.54;94079.78;5042242;28;20033;-87
2022/06/26 07:01:51;;;;;;;10.93;4.18;;;;;;;20.20;70.64;94084.44;5042627;28;20037;-89
2022/06/26 07:04:17;;;;;;;8.07;4.07;;;;;;;20.28;70.01;94077.19;5043002;28;20009;-90
2022/06/26 07:06:44;;;;;;;11.65;4.53;;;;;;;20.26;70.19;94082.19;5043547;28;20056;-89
2022/06/26 07:09:09;;;;;;;15.25;4.30;;;;;;;20.29;69.24;94084.13;5043538;28;20017;-89
2022/06/26 07:11:35;;;;;;;9.27;4.25;;;;;;;20.31;69.84;94070.25;5043334;28;20033;-89
2022/06/26 07:14:01;;;;;;;10.65;4.43;;;;;;;20.35;69.93;94071.88;5043597;28;20022;-88
2022/06/26 07:16:26;;;;;;;13.85;4.20;;;;;;;20.43;69.13;94081.63;5043487;28;20269;-90
2022/06/26 07:18:52;;;;;;;9.95;4.30;;;;;;;20.48;68.63;94080.50;5043681;28;20052;-89
2022/06/26 07:21:17;;;;;;;7.57;3.80;;;;;;;20.53;68.36;94082.88;5043344;28;20144;-89
2022/06/26 07:23:43;;;;;;;8.88;4.32;;;;;;;20.58;68.00;94079.06;5043423;28;20017;-88
2022/06/26 07:26:09;;;;;;;7.85;3.75;;;;;;;20.60;67.55;94084.91;5043148;28;20024;-89
2022/06/26 07:28:35;;;;;;;9.18;3.58;;;;;;;20.67;67.56;94081.50;5043392;28;20047;-89
2022/06/26 07:31:00;;;;;;;9.10;3.58;;;;;;;20.76;67.08;94085.47;5043187;28;20320;-89
2022/06/26 07:36:10;;;;;;;6.85;2.90;;;;;;;20.87;65.89;94080.13;5043787;28;20356;-90
2022/06/26 07:38:35;;;;;;;11.70;3.72;;;;;;;20.96;64.54;94077.88;5043871;28;20061;-89
2022/06/26 07:41:01;;;;;;;6.85;3.22;;;;;;;21.04;64.04;94079.53;5043189;28;20331;-89
2022/06/26 07:43:26;;;;;;;7.03;3.40;;;;;;;21.02;63.78;94081.84;5050993;28;20085;-88
2022/06/26 07:45:52;;;;;;;10.52;3.22;;;;;;;21.00;65.38;94081.44;5043333;28;20339;-89
2022/06/26 07:48:17;;;;;;;8.13;3.95;;;;;;;21.10;64.83;94087.31;5042170;28;20040;-91
2022/06/26 07:50:43;;;;;;;7.75;3.65;;;;;;;21.17;64.18;94071.13;5042812;28;20028;-90
2022/06/26 07:53:09;;;;;;;8.40;3.47;;;;;;;21.28;64.30;94077.38;5043112;28;20027;-90
2022/06/26 07:55:35;;;;;;;9.45;3.92;;;;;;;21.44;63.78;94075.22;5043220;28;20060;-88
2022/06/26 07:58:00;;;;;;;8.60;4.18;;;;;;;21.60;60.67;94076.88;5042804;28;20021;-87
2022/06/26 08:00:26;;;;;;;8.38;2.97;;;;;;;21.66;61.22;94075.38;5043165;28;20382;-90
2022/06/26 08:02:51;;;;;;;7.63;3.95;;;;;;;21.70;61.27;94075.38;5041868;28;20025;-90
2022/06/26 08:05:17;;;;;;;11.18;3.25;;;;;;;21.73;60.19;94074.63;5043125;28;20246;-90
2022/06/26 08:07:43;;;;;;;6.15;3.33;;;;;;;21.73;60.17;94078.09;5042125;28;20025;-90
2022/06/26 08:10:09;;;;;;;8.90;3.78;;;;;;;21.77;58.98;94070.75;5043029;28;20079;-90
2022/06/26 08:12:34;;;;;;;7.22;3.17;;;;;;;21.82;58.19;94067.69;5043162;28;20269;-91
2022/06/26 08:15:00;;;;;;;11.90;4.13;;;;;;;21.89;57.99;94071.63;5045243;28;20030;-90
2022/06/26 08:17:25;;;;;;;9.38;3.35;;;;;;;21.96;57.97;94083.28;5047011;28;20045;-91
2022/06/26 08:19:51;;;;;;;9.18;2.75;;;;;;;22.03;55.38;94075.16;5047332;28;20025;-90
2022/06/26 08:22:16;;;;;;;10.52;2.38;;;;;;;22.10;55.55;94071.69;5046912;28;20261;-87
2022/06/26 08:24:42;;;;;;;8.18;2.08;;;;;;;22.18;55.82;94069.81;5046672;28;20096;-89
2022/06/26 08:27:10;;;;;;;6.78;2.08;;;;;;;22.32;54.68;94063.69;5046647;28;20096;-88
2022/06/26 08:29:36;;;;;;;7.00;1.92;;;;;;;22.49;52.29;94059.44;5046361;28;20097;-89
2022/06/26 08:32:05;;;;;;;8.27;2.33;;;;;;;22.67;50.82;94064.94;5046658;28;20361;-89
2022/06/26 08:34:31;;;;;;;6.10;2.40;;;;;;;22.75;51.37;94070.00;5046284;28;20088;-89
2022/06/26 08:36:57;;;;;;;7.68;3.10;;;;;;;22.78;51.18;94066.53;5045545;28;20025;-89
2022/06/26 08:39:24;;;;;;;5.20;1.88;;;;;;;22.78;48.42;94074.66;5046477;28;20031;-89
2022/06/26 08:41:52;;;;;;;6.22;2.53;;;;;;;22.87;50.80;94074.28;5045851;28;20105;-89
2022/06/26 08:44:18;;;;;;;7.80;3.00;;;;;;;22.84;49.89;94070.41;5046294;28;20097;-89
2022/06/26 08:46:45;;;;;;;4.63;2.10;;;;;;;22.75;49.32;94080.84;5046012;28;20223;-89
2022/06/26 08:49:13;;;;;;;9.55;2.35;;;;;;;22.80;50.14;94082.44;5045780;28;20220;-87
2022/06/26 08:51:40;;;;;;;7.35;1.98;;;;;;;22.82;51.13;94071.97;5045812;28;20033;-89
2022/06/26 08:54:09;;;;;;;9.27;2.70;;;;;;;22.84;51.20;94075.06;5045572;28;20048;-88
2022/06/26 08:56:36;;;;;;;6.13;2.15;;;;;;;22.95;50.90;94070.41;5045628;28;20029;-87
2022/06/26 08:59:02;;;;;;;7.07;2.47;;;;;;;23.08;52.88;94073.59;5045293;28;20041;-88
2022/06/26 09:01:28;;;;;;;7.63;2.70;;;;;;;23.14;51.41;94074.75;5045467;28;20093;-88
2022/06/26 09:03:54;;;;;;;8.57;2.35;;;;;;;23.17;51.97;94065.03;5045298;28;20147;-87
2022/06/26 09:06:19;;;;;;;9.73;2.47;;;;;;;23.27;49.58;94075.13;5045115;28;20014;-89
2022/06/26 09:08:49;;;;;;;5.63;2.45;;;;;;;23.31;46.79;94072.41;5045262;28;20006;-88
2022/06/26 09:11:15;;;;;;;4.75;1.77;;;;;;;23.31;47.54;94065.03;5045358;28;20320;-88
2022/06/26 09:13:43;;;;;;;4.00;2.20;;;;;;;23.35;47.59;94073.19;5044168;28;20023;-88
2022/06/26 09:16:09;;;;;;;5.28;1.50;;;;;;;23.37;43.46;94068.91;5044056;28;20025;-88
2022/06/26 09:18:37;;;;;;;6.50;1.50;;;;;;;23.43;45.16;94067.34;5043738;28;20113;-88
2022/06/26 09:21:04;;;;;;;1.83;1.17;;;;;;;23.50;45.33;94061.13;5045016;28;20096;-88
2022/06/26 09:23:36;;;;;;;2.83;1.60;;;;;;;23.66;43.85;94055.28;5045098;28;20251;-89
2022/06/26 09:26:03;;;;;;;5.32;2.20;;;;;;;23.76;44.39;94056.41;5044412;28;20043;-88
2022/06/26 09:28:29;;;;;;;7.50;2.05;;;;;;;23.85;46.93;94048.63;5045068;28;20033;-90
2022/06/26 09:30:58;;;;;;;5.28;1.88;;;;;;;23.95;45.89;94063.41;5044813;28;20052;-89
2022/06/26 09:33:32;;;;;;;7.22;2.15;;;;;;;23.99;43.42;94064.16;5043817;28;20120;-88
2022/06/26 09:35:58;;;;;;;4.15;1.83;;;;;;;23.99;43.55;94058.72;5045348;28;20040;-89
2022/06/26 09:38:32;;;;;;;3.10;1.58;;;;;;;23.98;42.88;94055.22;5044917;28;20017;-89
2022/06/26 09:41:05;;;;;;;6.18;2.17;;;;;;;23.79;43.96;94051.00;5045249;28;20088;-89
2022/06/26 09:43:33;;;;;;;6.55;2.20;;;;;;;23.86;44.72;94055.66;5044672;28;20026;-88
2022/06/26 09:46:05;;;;;;;6.43;2.28;;;;;;;23.98;45.50;94057.19;5044647;28;20029;-88
2022/06/26 09:48:31;;;;;;;7.75;2.90;;;;;;;24.13;46.68;94058.66;5044689;28;20048;-89
2022/06/26 09:50:57;;;;;;;6.55;2.50;;;;;;;24.18;45.09;94066.44;5044604;28;20021;-89
2022/06/26 09:53:25;;;;;;;4.63;2.25;;;;;;;24.30;44.85;94067.16;5044484;28;20239;-88
2022/06/26 09:55:53;;;;;;;8.32;2.38;;;;;;;24.35;44.70;94070.25;5044630;28;20097;-88
2022/06/26 09:58:19;;;;;;;6.15;2.10;;;;;;;24.36;44.58;94057.41;5044284;28;20052;-88
2022/06/26 10:06:25;;;;;;;5.88;3.05;;;;;;;24.41;44.40;94068.66;5044241;28;20017;-89
2022/06/26 10:06:27;;;;;;;3.63;2.17;;;;;;;24.48;45.08;94056.19;5044164;28;20115;-88
2022/06/26 10:09:02;;;;;;;7.78;2.72;;;;;;;24.45;47.03;94062.44;5044326;28;20221;-88
2022/06/26 10:11:30;;;;;;;6.25;2.42;;;;;;;24.47;44.92;94057.38;5044025;28;20025;-88
2022/06/26 10:14:02;;;;;;;8.35;2.67;;;;;;;24.63;46.26;94058.47;5043789;28;20032;-88
2022/06/26 10:16:31;;;;;;;9.27;2.80;;;;;;;24.87;45.28;94049.75;5043878;28;20017;-89
2022/06/26 10:19:16;;;;;;;7.28;1.73;;;;;;;24.96;41.03;94053.59;5044179;28;20119;-89
2022/06/26 10:21:42;;;;;;;3.95;2.03;;;;;;;24.93;39.29;94039.97;5043735;28;20086;-88
2022/06/26 10:24:08;;;;;;;6.47;1.92;;;;;;;24.91;41.61;94045.81;5043683;28;20021;-88
2022/06/26 10:26:34;;;;;;;4.75;2.00;;;;;;;24.98;41.45;94034.88;5043812;28;20022;-89
2022/06/26 10:29:08;;;;;;;6.05;1.65;;;;;;;25.04;43.06;94043.41;5043836;28;20013;-88
2022/06/26 10:31:49;;;;;;;3.90;1.80;;;;;;;24.99;42.38;94039.16;5043659;28;20059;-88
2022/06/26 10:34:14;;;;;;;7.32;2.17;;;;;;;24.94;42.50;94025.19;5043585;28;20048;-89
2022/06/26 10:36:40;;;;;;;9.40;3.22;;;;;;;24.98;43.50;94029.41;5043719;28;20021;-88
2022/06/26 10:39:06;;;;;;;9.15;2.30;;;;;;;25.06;42.23;94018.47;5041472;28;20032;-87
2022/06/26 10:44:41;;;;;;;6.97;1.70;;;;;;;25.03;41.28;94036.41;5043460;28;20071;-88
2022/06/26 10:47:15;;;;;;;4.57;1.88;;;;;;;24.98;40.74;94023.97;5043469;28;20323;-87
2022/06/26 10:49:51;;;;;;;9.43;2.00;;;;;;;25.02;41.04;94018.50;5043297;28;20201;-87
2022/06/26 10:52:32;;;;;;;4.70;2.03;;;;;;;25.14;41.69;94030.88;5042036;28;20032;-88
2022/06/26 10:54:58;;;;;;;5.35;1.70;;;;;;;25.09;41.86;94021.16;5043285;28;20024;-87
2022/06/26 10:57:35;;;;;;;2.42;1.23;;;;;;;25.13;40.03;94023.84;5043269;28;20084;-88
2022/06/26 11:00:04;;;;;;;2.67;1.40;;;;;;;25.14;39.20;94020.72;5043153;28;20048;-88
2022/06/26 11:02:38;;;;;;;3.85;1.45;;;;;;;25.22;41.39;94021.50;5043192;28;20017;-88
2022/06/26 11:05:06;;;;;;;4.20;1.42;;;;;;;25.36;39.40;94023.28;5043520;28;20390;-88
2022/06/26 11:07:47;;;;;;;4.65;2.03;;;;;;;25.36;40.00;94015.09;5043355;28;20018;-88
2022/06/26 11:10:18;;;;;;;6.63;1.60;;;;;;;25.51;40.89;94018.50;5043043;28;20075;-87
2022/06/26 11:12:46;;;;;;;3.60;1.33;;;;;;;25.65;35.36;94018.34;5042925;28;20052;-88
2022/06/26 11:15:26;;;;;;;3.67;0.98;;;;;;;25.77;34.06;94014.34;5041921;28;20029;-88
2022/06/26 11:18:05;;;;;;;11.43;1.80;;;;;;;25.75;34.15;94022.16;5042843;28;20037;-87
2022/06/26 11:20:49;;;;;;;2.75;1.30;;;;;;;25.74;37.04;94018.63;5041951;28;20013;-87
2022/06/26 11:23:25;;;;;;;5.43;1.45;;;;;;;25.92;35.34;94017.69;5042990;28;20085;-88
2022/06/26 11:25:55;;;;;;;6.70;2.15;;;;;;;26.07;37.37;94012.84;5043186;28;20025;-88
2022/06/26 11:28:28;;;;;;;5.78;1.30;;;;;;;26.25;33.32;94018.09;5042929;28;20021;-87
2022/06/26 11:30:53;;;;;;;13.50;1.80;;;;;;;26.38;34.84;94019.09;5042734;28;20323;-88
2022/06/26 11:33:26;;;;;;;5.53;1.80;;;;;;;26.62;33.62;94014.50;5042920;28;20051;-88
2022/06/26 11:35:53;;;;;;;5.00;1.40;;;;;;;26.78;32.66;94009.19;5042924;28;20322;-88
2022/06/26 11:38:20;;;;;;;5.72;1.40;;;;;;;26.92;33.78;94010.94;5042943;28;20036;-88
2022/06/26 11:40:49;;;;;;;6.07;1.75;;;;;;;26.93;37.10;94006.25;5042957;28;20017;-89
2022/06/26 11:43:15;;;;;;;7.15;1.63;;;;;;;26.96;35.90;94003.44;5042666;28;20021;-88
2022/06/26 11:45:43;;;;;;;8.95;1.75;;;;;;;27.12;36.85;94007.50;5042617;28;20315;-88